sensor_id;sensor_type;location;lat;lon;timestamp;pressure;altitude;pressure_sealevel;temperature
27715;BMP280;16051;53.024;8.630;2022-10-29T00:03:26;102036.19;;;16.63
27715;BMP280;16051;53.024;8.630;2022-10-29T00:07:47;102032.63;;;16.63
27715;BMP280;16051;53.024;8.630;2022-10-29T00:11:52;102055.03;;;16.68
27715;BMP280;16051;53.024;8.630;2022-10-29T00:15:56;102053.88;;;16.60
27715;BMP280;16051;53.024;8.630;2022-10-29T00:19:58;102065.31;;;16.62
27715;BMP280;16051;53.024;8.630;2022-10-29T00:24:01;102055.91;;;16.60
27715;BMP280;16051;53.024;8.630;2022-10-29T00:28:04;102054.34;;;16.59
27715;BMP280;16051;53.024;8.630;2022-10-29T00:32:06;102070.31;;;16.58
27715;BMP280;16051;53.024;8.630;2022-10-29T00:36:14;102062.53;;;16.62
27715;BMP280;16051;53.024;8.630;2022-10-29T00:40:18;102072.44;;;16.63
27715;BMP280;16051;53.024;8.630;2022-10-29T00:44:32;102066.56;;;16.61
27715;BMP280;16051;53.024;8.630;2022-10-29T00:48:56;102072.16;;;16.61
27715;BMP280;16051;53.024;8.630;2022-10-29T00:53:01;102078.69;;;16.58
27715;BMP280;16051;53.024;8.630;2022-10-29T00:57:10;102075.31;;;16.69
27715;BMP280;16051;53.024;8.630;2022-10-29T01:01:15;102068.88;;;16.63
27715;BMP280;16051;53.024;8.630;2022-10-29T01:05:20;102073.69;;;16.62
27715;BMP280;16051;53.024;8.630;2022-10-29T01:09:24;102078.69;;;16.58
27715;BMP280;16051;53.024;8.630;2022-10-29T01:13:46;102091.09;;;16.57
27715;BMP280;16051;53.024;8.630;2022-10-29T01:18:12;102080.22;;;16.59
27715;BMP280;16051;53.024;8.630;2022-10-29T01:22:23;102088.47;;;16.54
27715;BMP280;16051;53.024;8.630;2022-10-29T01:27:04;102088.97;;;16.52
27715;BMP280;16051;53.024;8.630;2022-10-29T01:31:33;102083.19;;;16.41
27715;BMP280;16051;53.024;8.630;2022-10-29T01:35:47;102086.94;;;16.38
27715;BMP280;16051;53.024;8.630;2022-10-29T01:40:22;102091.16;;;16.34
27715;BMP280;16051;53.024;8.630;2022-10-29T01:44:34;102076.53;;;16.24
27715;BMP280;16051;53.024;8.630;2022-10-29T01:48:43;102071.16;;;16.20
27715;BMP280;16051;53.024;8.630;2022-10-29T01:52:57;102058.91;;;16.18
27715;BMP280;16051;53.024;8.630;2022-10-29T01:57:00;102083.41;;;16.14
27715;BMP280;16051;53.024;8.630;2022-10-29T02:01:15;102053.31;;;16.03
27715;BMP280;16051;53.024;8.630;2022-10-29T02:05:31;102061.56;;;15.98
27715;BMP280;16051;53.024;8.630;2022-10-29T02:09:42;102044.63;;;15.87
27715;BMP280;16051;53.024;8.630;2022-10-29T02:13:56;102058.53;;;15.72
27715;BMP280;16051;53.024;8.630;2022-10-29T02:18:00;102041.13;;;15.62
27715;BMP280;16051;53.024;8.630;2022-10-29T02:22:04;102050.94;;;15.49
27715;BMP280;16051;53.024;8.630;2022-10-29T02:26:06;102051.91;;;15.37
27715;BMP280;16051;53.024;8.630;2022-10-29T02:30:09;102057.53;;;15.27
27715;BMP280;16051;53.024;8.630;2022-10-29T02:34:12;102065.75;;;15.22
27715;BMP280;16051;53.024;8.630;2022-10-29T02:38:35;102059.00;;;15.14
27715;BMP280;16051;53.024;8.630;2022-10-29T02:47:55;102044.69;;;14.97
27715;BMP280;16051;53.024;8.630;2022-10-29T02:51:57;102039.47;;;14.90
27715;BMP280;16051;53.024;8.630;2022-10-29T02:56:01;102044.28;;;14.81
27715;BMP280;16051;53.024;8.630;2022-10-29T03:00:21;102033.06;;;14.66
27715;BMP280;16051;53.024;8.630;2022-10-29T03:04:23;102038.50;;;14.60
27715;BMP280;16051;53.024;8.630;2022-10-29T03:08:26;102022.44;;;14.55
27715;BMP280;16051;53.024;8.630;2022-10-29T03:12:29;102013.19;;;14.40
27715;BMP280;16051;53.024;8.630;2022-10-29T03:16:31;102005.03;;;14.27
27715;BMP280;16051;53.024;8.630;2022-10-29T03:20:33;102006.13;;;14.21
27715;BMP280;16051;53.024;8.630;2022-10-29T03:24:35;102000.88;;;14.14
27715;BMP280;16051;53.024;8.630;2022-10-29T03:28:39;102007.06;;;14.09
27715;BMP280;16051;53.024;8.630;2022-10-29T03:32:42;102009.06;;;14.08
27715;BMP280;16051;53.024;8.630;2022-10-29T03:36:45;102012.16;;;14.01
27715;BMP280;16051;53.024;8.630;2022-10-29T03:40:47;102000.91;;;13.96
27715;BMP280;16051;53.024;8.630;2022-10-29T03:44:51;102009.06;;;13.90
27715;BMP280;16051;53.024;8.630;2022-10-29T03:48:53;102004.75;;;13.80
27715;BMP280;16051;53.024;8.630;2022-10-29T03:52:55;102005.69;;;13.77
27715;BMP280;16051;53.024;8.630;2022-10-29T03:56:57;102008.00;;;13.69
27715;BMP280;16051;53.024;8.630;2022-10-29T04:01:04;102015.09;;;13.61
27715;BMP280;16051;53.024;8.630;2022-10-29T04:05:07;102027.91;;;13.59
27715;BMP280;16051;53.024;8.630;2022-10-29T04:09:09;102033.13;;;13.57
27715;BMP280;16051;53.024;8.630;2022-10-29T04:13:12;102061.19;;;13.59
27715;BMP280;16051;53.024;8.630;2022-10-29T04:17:15;102037.88;;;13.47
27715;BMP280;16051;53.024;8.630;2022-10-29T04:21:36;102040.38;;;13.45
27715;BMP280;16051;53.024;8.630;2022-10-29T04:25:38;102042.97;;;13.40
27715;BMP280;16051;53.024;8.630;2022-10-29T04:29:40;102036.47;;;13.34
27715;BMP280;16051;53.024;8.630;2022-10-29T04:33:44;102046.47;;;13.22
27715;BMP280;16051;53.024;8.630;2022-10-29T04:37:47;102026.56;;;13.14
27715;BMP280;16051;53.024;8.630;2022-10-29T04:41:49;102035.13;;;13.07
27715;BMP280;16051;53.024;8.630;2022-10-29T04:45:52;102039.28;;;13.03
27715;BMP280;16051;53.024;8.630;2022-10-29T04:49:56;102034.19;;;13.01
27715;BMP280;16051;53.024;8.630;2022-10-29T04:54:01;102024.91;;;12.95
27715;BMP280;16051;53.024;8.630;2022-10-29T04:58:04;102039.06;;;12.88
27715;BMP280;16051;53.024;8.630;2022-10-29T05:02:07;102041.22;;;12.84
27715;BMP280;16051;53.024;8.630;2022-10-29T05:06:10;102033.47;;;12.79
27715;BMP280;16051;53.024;8.630;2022-10-29T05:10:13;102031.03;;;12.81
27715;BMP280;16051;53.024;8.630;2022-10-29T05:14:15;102028.25;;;12.81
27715;BMP280;16051;53.024;8.630;2022-10-29T05:18:18;102028.56;;;12.83
27715;BMP280;16051;53.024;8.630;2022-10-29T05:22:26;102033.78;;;12.81
27715;BMP280;16051;53.024;8.630;2022-10-29T05:26:30;102044.72;;;12.75
27715;BMP280;16051;53.024;8.630;2022-10-29T05:30:34;102053.03;;;12.75
27715;BMP280;16051;53.024;8.630;2022-10-29T05:34:36;102065.94;;;12.69
27715;BMP280;16051;53.024;8.630;2022-10-29T05:38:39;102063.88;;;12.61
27715;BMP280;16051;53.024;8.630;2022-10-29T05:42:42;102054.28;;;12.53
27715;BMP280;16051;53.024;8.630;2022-10-29T05:47:05;102063.94;;;12.48
27715;BMP280;16051;53.024;8.630;2022-10-29T05:51:19;102056.22;;;12.43
27715;BMP280;16051;53.024;8.630;2022-10-29T05:55:23;102059.78;;;12.44
27715;BMP280;16051;53.024;8.630;2022-10-29T05:59:25;102060.69;;;12.41
27715;BMP280;16051;53.024;8.630;2022-10-29T06:03:28;102047.72;;;12.38
27715;BMP280;16051;53.024;8.630;2022-10-29T06:07:30;102036.47;;;12.32
27715;BMP280;16051;53.024;8.630;2022-10-29T06:11:34;102030.13;;;12.31
27715;BMP280;16051;53.024;8.630;2022-10-29T06:15:36;102047.53;;;12.32
27715;BMP280;16051;53.024;8.630;2022-10-29T06:19:38;102042.91;;;12.29
27715;BMP280;16051;53.024;8.630;2022-10-29T06:23:40;102032.59;;;12.29
27715;BMP280;16051;53.024;8.630;2022-10-29T06:27:44;102043.69;;;12.29
27715;BMP280;16051;53.024;8.630;2022-10-29T06:31:46;102035.81;;;12.28
27715;BMP280;16051;53.024;8.630;2022-10-29T06:35:48;102042.00;;;12.32
27715;BMP280;16051;53.024;8.630;2022-10-29T06:39:50;102040.78;;;12.33
27715;BMP280;16051;53.024;8.630;2022-10-29T06:43:54;102040.44;;;12.31
27715;BMP280;16051;53.024;8.630;2022-10-29T06:47:56;102031.34;;;12.30
27715;BMP280;16051;53.024;8.630;2022-10-29T06:51:58;102026.06;;;12.23
27715;BMP280;16051;53.024;8.630;2022-10-29T06:56:03;102035.25;;;12.33
27715;BMP280;16051;53.024;8.630;2022-10-29T07:00:09;102032.47;;;12.33
27715;BMP280;16051;53.024;8.630;2022-10-29T07:04:12;102034.63;;;12.38
27715;BMP280;16051;53.024;8.630;2022-10-29T07:08:20;102039.41;;;12.38
27715;BMP280;16051;53.024;8.630;2022-10-29T07:12:22;102047.72;;;12.38
27715;BMP280;16051;53.024;8.630;2022-10-29T07:16:26;102041.28;;;12.41
27715;BMP280;16051;53.024;8.630;2022-10-29T07:20:30;102038.69;;;12.46
27715;BMP280;16051;53.024;8.630;2022-10-29T07:24:34;102031.03;;;12.50
27715;BMP280;16051;53.024;8.630;2022-10-29T07:28:40;102029.19;;;12.56
27715;BMP280;16051;53.024;8.630;2022-10-29T07:32:44;102028.50;;;12.65
27715;BMP280;16051;53.024;8.630;2022-10-29T07:36:46;102039.31;;;12.72
27715;BMP280;16051;53.024;8.630;2022-10-29T07:40:49;102046.13;;;12.80
27715;BMP280;16051;53.024;8.630;2022-10-29T07:45:05;102039.69;;;12.92
27715;BMP280;16051;53.024;8.630;2022-10-29T07:49:09;102041.41;;;12.99
27715;BMP280;16051;53.024;8.630;2022-10-29T07:53:11;102029.94;;;13.09
27715;BMP280;16051;53.024;8.630;2022-10-29T07:57:14;102027.81;;;13.22
27715;BMP280;16051;53.024;8.630;2022-10-29T08:01:16;102035.72;;;13.33
27715;BMP280;16051;53.024;8.630;2022-10-29T08:05:20;102041.75;;;13.50
27715;BMP280;16051;53.024;8.630;2022-10-29T08:09:23;102051.03;;;13.65
27715;BMP280;16051;53.024;8.630;2022-10-29T08:18:42;102061.88;;;13.99
27715;BMP280;16051;53.024;8.630;2022-10-29T08:22:46;102058.13;;;14.11
27715;BMP280;16051;53.024;8.630;2022-10-29T08:26:49;102069.88;;;14.15
27715;BMP280;16051;53.024;8.630;2022-10-29T08:30:51;102060.00;;;14.23
27715;BMP280;16051;53.024;8.630;2022-10-29T08:34:53;102062.00;;;14.32
27715;BMP280;16051;53.024;8.630;2022-10-29T08:38:57;102060.63;;;14.37
27715;BMP280;16051;53.024;8.630;2022-10-29T08:43:36;102036.38;;;14.46
27715;BMP280;16051;53.024;8.630;2022-10-29T08:48:14;102028.47;;;14.54
27715;BMP280;16051;53.024;8.630;2022-10-29T08:52:23;102036.66;;;14.57
27715;BMP280;16051;53.024;8.630;2022-10-29T08:56:32;102037.09;;;14.65
27715;BMP280;16051;53.024;8.630;2022-10-29T09:00:38;102032.22;;;14.84
27715;BMP280;16051;53.024;8.630;2022-10-29T09:04:42;102012.50;;;15.05
27715;BMP280;16051;53.024;8.630;2022-10-29T09:09:18;102028.03;;;15.21
27715;BMP280;16051;53.024;8.630;2022-10-29T09:13:40;102032.72;;;15.39
27715;BMP280;16051;53.024;8.630;2022-10-29T09:18:10;102029.44;;;15.49
27715;BMP280;16051;53.024;8.630;2022-10-29T09:22:22;102024.59;;;15.59
27715;BMP280;16051;53.024;8.630;2022-10-29T09:26:32;102023.44;;;15.65
27715;BMP280;16051;53.024;8.630;2022-10-29T09:31:03;102013.31;;;15.77
27715;BMP280;16051;53.024;8.630;2022-10-29T09:35:13;102009.38;;;15.84
27715;BMP280;16051;53.024;8.630;2022-10-29T09:39:25;102012.25;;;15.89
27715;BMP280;16051;53.024;8.630;2022-10-29T09:43:39;102014.69;;;16.11
27715;BMP280;16051;53.024;8.630;2022-10-29T09:48:01;102008.34;;;16.25
27715;BMP280;16051;53.024;8.630;2022-10-29T09:52:09;102006.16;;;16.44
27715;BMP280;16051;53.024;8.630;2022-10-29T09:56:14;102000.84;;;16.75
27715;BMP280;16051;53.024;8.630;2022-10-29T10:00:23;102014.56;;;16.93
27715;BMP280;16051;53.024;8.630;2022-10-29T10:04:33;102017.63;;;17.10
27715;BMP280;16051;53.024;8.630;2022-10-29T10:08:58;102012.56;;;17.29
27715;BMP280;16051;53.024;8.630;2022-10-29T10:13:03;102007.38;;;17.42
27715;BMP280;16051;53.024;8.630;2022-10-29T10:17:06;101988.88;;;17.44
27715;BMP280;16051;53.024;8.630;2022-10-29T10:21:23;101993.22;;;17.45
27715;BMP280;16051;53.024;8.630;2022-10-29T10:25:36;101991.81;;;17.55
27715;BMP280;16051;53.024;8.630;2022-10-29T10:29:39;101992.53;;;17.70
27715;BMP280;16051;53.024;8.630;2022-10-29T10:33:51;101984.19;;;17.96
27715;BMP280;16051;53.024;8.630;2022-10-29T10:37:55;101985.88;;;18.14
27715;BMP280;16051;53.024;8.630;2022-10-29T10:42:02;101976.50;;;18.17
27715;BMP280;16051;53.024;8.630;2022-10-29T10:46:14;101979.03;;;18.15
27715;BMP280;16051;53.024;8.630;2022-10-29T10:50:25;101983.94;;;18.26
27715;BMP280;16051;53.024;8.630;2022-10-29T10:54:37;101978.00;;;18.44
27715;BMP280;16051;53.024;8.630;2022-10-29T10:58:54;101977.44;;;18.65
27715;BMP280;16051;53.024;8.630;2022-10-29T11:03:05;101968.84;;;18.75
27715;BMP280;16051;53.024;8.630;2022-10-29T11:07:13;101954.13;;;18.80
27715;BMP280;16051;53.024;8.630;2022-10-29T11:11:23;101957.94;;;18.82
27715;BMP280;16051;53.024;8.630;2022-10-29T11:15:37;101947.53;;;18.83
27715;BMP280;16051;53.024;8.630;2022-10-29T11:19:45;101957.19;;;18.82
27715;BMP280;16051;53.024;8.630;2022-10-29T11:23:59;101933.50;;;18.77
27715;BMP280;16051;53.024;8.630;2022-10-29T11:28:17;101939.44;;;18.96
27715;BMP280;16051;53.024;8.630;2022-10-29T11:32:28;101926.97;;;18.91
27715;BMP280;16051;53.024;8.630;2022-10-29T11:41:55;101906.63;;;18.91
27715;BMP280;16051;53.024;8.630;2022-10-29T11:46:13;101904.09;;;18.98
27715;BMP280;16051;53.024;8.630;2022-10-29T11:50:29;101906.97;;;19.15
27715;BMP280;16051;53.024;8.630;2022-10-29T11:54:52;101902.44;;;19.29
27715;BMP280;16051;53.024;8.630;2022-10-29T11:59:06;101901.22;;;19.41
27715;BMP280;16051;53.024;8.630;2022-10-29T12:03:44;101891.31;;;19.51
27715;BMP280;16051;53.024;8.630;2022-10-29T12:13:19;101876.28;;;19.54
27715;BMP280;16051;53.024;8.630;2022-10-29T12:17:32;101878.13;;;19.74
27715;BMP280;16051;53.024;8.630;2022-10-29T12:22:24;101888.31;;;19.88
27715;BMP280;16051;53.024;8.630;2022-10-29T12:26:41;101887.31;;;19.96
27715;BMP280;16051;53.024;8.630;2022-10-29T12:31:04;101886.53;;;20.12
27715;BMP280;16051;53.024;8.630;2022-10-29T12:35:17;101873.56;;;20.32
27715;BMP280;16051;53.024;8.630;2022-10-29T12:39:28;101869.44;;;20.44
27715;BMP280;16051;53.024;8.630;2022-10-29T12:43:35;101867.41;;;20.50
27715;BMP280;16051;53.024;8.630;2022-10-29T12:47:44;101857.19;;;20.52
27715;BMP280;16051;53.024;8.630;2022-10-29T12:51:53;101845.97;;;20.58
27715;BMP280;16051;53.024;8.630;2022-10-29T12:55:58;101856.13;;;20.67
27715;BMP280;16051;53.024;8.630;2022-10-29T13:00:46;101841.81;;;20.76
27715;BMP280;16051;53.024;8.630;2022-10-29T13:05:15;101840.47;;;20.93
27715;BMP280;16051;53.024;8.630;2022-10-29T13:09:20;101843.16;;;21.27
27715;BMP280;16051;53.024;8.630;2022-10-29T13:13:57;101831.28;;;21.45
27715;BMP280;16051;53.024;8.630;2022-10-29T13:18:05;101826.00;;;21.30
27715;BMP280;16051;53.024;8.630;2022-10-29T13:23:01;101816.63;;;21.17
27715;BMP280;16051;53.024;8.630;2022-10-29T13:27:32;101819.16;;;21.20
27715;BMP280;16051;53.024;8.630;2022-10-29T13:31:48;101812.75;;;21.60
27715;BMP280;16051;53.024;8.630;2022-10-29T13:35:56;101802.50;;;22.47
27715;BMP280;16051;53.024;8.630;2022-10-29T13:45:16;101815.97;;;23.16
27715;BMP280;16051;53.024;8.630;2022-10-29T13:49:25;101797.50;;;22.58
27715;BMP280;16051;53.024;8.630;2022-10-29T13:53:41;101793.22;;;22.03
27715;BMP280;16051;53.024;8.630;2022-10-29T13:57:59;101799.59;;;21.74
27715;BMP280;16051;53.024;8.630;2022-10-29T14:02:34;101793.72;;;21.42
27715;BMP280;16051;53.024;8.630;2022-10-29T14:06:42;101808.13;;;21.28
27715;BMP280;16051;53.024;8.630;2022-10-29T14:10:47;101809.75;;;21.06
27715;BMP280;16051;53.024;8.630;2022-10-29T14:14:59;101806.56;;;20.86
27715;BMP280;16051;53.024;8.630;2022-10-29T14:19:13;101808.41;;;20.72
27715;BMP280;16051;53.024;8.630;2022-10-29T14:23:31;101803.09;;;20.57
27715;BMP280;16051;53.024;8.630;2022-10-29T14:27:40;101800.06;;;20.50
27715;BMP280;16051;53.024;8.630;2022-10-29T14:32:04;101799.84;;;20.42
27715;BMP280;16051;53.024;8.630;2022-10-29T14:36:15;101793.91;;;20.51
27715;BMP280;16051;53.024;8.630;2022-10-29T14:40:24;101793.66;;;20.60
27715;BMP280;16051;53.024;8.630;2022-10-29T14:44:30;101806.38;;;20.67
27715;BMP280;16051;53.024;8.630;2022-10-29T14:48:59;101796.97;;;20.65
27715;BMP280;16051;53.024;8.630;2022-10-29T14:53:05;101789.56;;;20.61
27715;BMP280;16051;53.024;8.630;2022-10-29T14:57:22;101787.81;;;20.53
27715;BMP280;16051;53.024;8.630;2022-10-29T15:01:26;101789.34;;;20.48
27715;BMP280;16051;53.024;8.630;2022-10-29T15:05:30;101784.78;;;20.45
27715;BMP280;16051;53.024;8.630;2022-10-29T15:09:34;101790.94;;;20.33
27715;BMP280;16051;53.024;8.630;2022-10-29T15:13:38;101784.28;;;20.25
27715;BMP280;16051;53.024;8.630;2022-10-29T15:17:49;101779.50;;;20.03
27715;BMP280;16051;53.024;8.630;2022-10-29T15:21:53;101773.66;;;19.84
27715;BMP280;16051;53.024;8.630;2022-10-29T15:26:01;101754.78;;;19.79
27715;BMP280;16051;53.024;8.630;2022-10-29T15:30:20;101747.66;;;19.50
27715;BMP280;16051;53.024;8.630;2022-10-29T15:34:32;101747.66;;;19.34
27715;BMP280;16051;53.024;8.630;2022-10-29T15:43:29;101741.22;;;19.00
27715;BMP280;16051;53.024;8.630;2022-10-29T15:47:35;101742.50;;;18.88
27715;BMP280;16051;53.024;8.630;2022-10-29T15:51:37;101739.13;;;18.78
27715;BMP280;16051;53.024;8.630;2022-10-29T15:55:40;101735.31;;;18.70
27715;BMP280;16051;53.024;8.630;2022-10-29T15:59:42;101728.16;;;18.63
27715;BMP280;16051;53.024;8.630;2022-10-29T16:03:46;101734.00;;;18.60
27715;BMP280;16051;53.024;8.630;2022-10-29T16:08:00;101736.78;;;18.54
27715;BMP280;16051;53.024;8.630;2022-10-29T16:12:03;101719.94;;;18.49
27715;BMP280;16051;53.024;8.630;2022-10-29T16:16:11;101727.28;;;18.41
27715;BMP280;16051;53.024;8.630;2022-10-29T16:20:18;101735.31;;;18.22
27715;BMP280;16051;53.024;8.630;2022-10-29T16:24:20;101724.63;;;18.15
27715;BMP280;16051;53.024;8.630;2022-10-29T16:28:22;101730.69;;;18.08
27715;BMP280;16051;53.024;8.630;2022-10-29T16:32:24;101736.50;;;18.04
27715;BMP280;16051;53.024;8.630;2022-10-29T16:36:49;101727.06;;;17.96
27715;BMP280;16051;53.024;8.630;2022-10-29T16:40:52;101726.25;;;17.90
27715;BMP280;16051;53.024;8.630;2022-10-29T16:45:30;101722.94;;;17.86
27715;BMP280;16051;53.024;8.630;2022-10-29T16:49:33;101723.66;;;17.81
27715;BMP280;16051;53.024;8.630;2022-10-29T16:53:48;101724.34;;;17.76
27715;BMP280;16051;53.024;8.630;2022-10-29T16:57:52;101712.94;;;17.74
27715;BMP280;16051;53.024;8.630;2022-10-29T17:01:54;101728.66;;;17.72
27715;BMP280;16051;53.024;8.630;2022-10-29T17:06:46;101719.22;;;17.69
27715;BMP280;16051;53.024;8.630;2022-10-29T17:10:58;101723.00;;;17.60
27715;BMP280;16051;53.024;8.630;2022-10-29T17:15:01;101724.44;;;17.56
27715;BMP280;16051;53.024;8.630;2022-10-29T17:19:04;101722.34;;;17.51
27715;BMP280;16051;53.024;8.630;2022-10-29T17:23:06;101729.47;;;17.46
27715;BMP280;16051;53.024;8.630;2022-10-29T17:27:11;101726.34;;;17.39
27715;BMP280;16051;53.024;8.630;2022-10-29T17:31:13;101721.19;;;17.32
27715;BMP280;16051;53.024;8.630;2022-10-29T17:35:15;101731.81;;;17.28
27715;BMP280;16051;53.024;8.630;2022-10-29T17:39:18;101738.09;;;17.22
27715;BMP280;16051;53.024;8.630;2022-10-29T17:43:34;101732.50;;;17.17
27715;BMP280;16051;53.024;8.630;2022-10-29T17:47:36;101728.13;;;17.10
27715;BMP280;16051;53.024;8.630;2022-10-29T17:51:42;101732.16;;;17.09
27715;BMP280;16051;53.024;8.630;2022-10-29T17:55:45;101724.47;;;17.04
27715;BMP280;16051;53.024;8.630;2022-10-29T17:59:48;101725.47;;;17.01
27715;BMP280;16051;53.024;8.630;2022-10-29T18:03:52;101733.84;;;17.01
27715;BMP280;16051;53.024;8.630;2022-10-29T18:07:54;101732.31;;;17.00
27715;BMP280;16051;53.024;8.630;2022-10-29T18:11:56;101730.03;;;16.99
27715;BMP280;16051;53.024;8.630;2022-10-29T18:16:20;101739.09;;;16.94
27715;BMP280;16051;53.024;8.630;2022-10-29T18:20:33;101735.75;;;16.90
27715;BMP280;16051;53.024;8.630;2022-10-29T18:24:44;101742.31;;;16.87
27715;BMP280;16051;53.024;8.630;2022-10-29T18:29:00;101736.19;;;16.83
27715;BMP280;16051;53.024;8.630;2022-10-29T18:33:11;101736.91;;;16.78
27715;BMP280;16051;53.024;8.630;2022-10-29T18:37:13;101732.53;;;16.71
27715;BMP280;16051;53.024;8.630;2022-10-29T18:41:40;101729.88;;;16.62
27715;BMP280;16051;53.024;8.630;2022-10-29T18:45:56;101738.63;;;16.55
27715;BMP280;16051;53.024;8.630;2022-10-29T18:50:00;101736.03;;;16.51
27715;BMP280;16051;53.024;8.630;2022-10-29T18:59:41;101725.72;;;16.37
27715;BMP280;16051;53.024;8.630;2022-10-29T19:03:50;101734.78;;;16.32
27715;BMP280;16051;53.024;8.630;2022-10-29T19:13:09;101734.63;;;16.21
27715;BMP280;16051;53.024;8.630;2022-10-29T19:17:11;101722.09;;;16.11
27715;BMP280;16051;53.024;8.630;2022-10-29T19:21:16;101721.72;;;16.03
27715;BMP280;16051;53.024;8.630;2022-10-29T19:25:27;101722.69;;;16.00
27715;BMP280;16051;53.024;8.630;2022-10-29T19:29:49;101724.91;;;15.96
27715;BMP280;16051;53.024;8.630;2022-10-29T19:33:54;101714.47;;;15.91
27715;BMP280;16051;53.024;8.630;2022-10-29T19:37:56;101707.75;;;15.83
27715;BMP280;16051;53.024;8.630;2022-10-29T19:42:01;101699.31;;;15.77
27715;BMP280;16051;53.024;8.630;2022-10-29T19:46:07;101701.25;;;15.71
27715;BMP280;16051;53.024;8.630;2022-10-29T19:50:10;101695.41;;;15.69
27715;BMP280;16051;53.024;8.630;2022-10-29T19:54:12;101705.47;;;15.67
27715;BMP280;16051;53.024;8.630;2022-10-29T19:58:14;101697.06;;;15.61
27715;BMP280;16051;53.024;8.630;2022-10-29T20:02:22;101695.44;;;15.55
27715;BMP280;16051;53.024;8.630;2022-10-29T20:06:24;101693.50;;;15.46
27715;BMP280;16051;53.024;8.630;2022-10-29T20:10:26;101687.66;;;15.44
27715;BMP280;16051;53.024;8.630;2022-10-29T20:14:28;101694.09;;;15.36
27715;BMP280;16051;53.024;8.630;2022-10-29T20:18:36;101685.94;;;15.32
27715;BMP280;16051;53.024;8.630;2022-10-29T20:22:39;101685.06;;;15.26
27715;BMP280;16051;53.024;8.630;2022-10-29T20:26:41;101674.16;;;15.22
27715;BMP280;16051;53.024;8.630;2022-10-29T20:30:43;101686.50;;;15.21
27715;BMP280;16051;53.024;8.630;2022-10-29T20:34:47;101685.28;;;15.22
27715;BMP280;16051;53.024;8.630;2022-10-29T20:38:50;101674.34;;;15.19
27715;BMP280;16051;53.024;8.630;2022-10-29T20:42:52;101671.25;;;15.17
27715;BMP280;16051;53.024;8.630;2022-10-29T20:46:54;101659.53;;;15.13
27715;BMP280;16051;53.024;8.630;2022-10-29T20:51:15;101660.31;;;15.13
27715;BMP280;16051;53.024;8.630;2022-10-29T20:55:18;101655.78;;;15.16
27715;BMP280;16051;53.024;8.630;2022-10-29T20:59:21;101641.03;;;15.10
27715;BMP280;16051;53.024;8.630;2022-10-29T21:03:23;101650.16;;;15.10
27715;BMP280;16051;53.024;8.630;2022-10-29T21:07:41;101648.03;;;15.05
27715;BMP280;16051;53.024;8.630;2022-10-29T21:11:43;101638.06;;;14.99
27715;BMP280;16051;53.024;8.630;2022-10-29T21:15:45;101642.56;;;14.96
27715;BMP280;16051;53.024;8.630;2022-10-29T21:19:47;101642.47;;;14.91
27715;BMP280;16051;53.024;8.630;2022-10-29T21:23:58;101637.88;;;14.88
27715;BMP280;16051;53.024;8.630;2022-10-29T21:28:00;101626.94;;;14.84
27715;BMP280;16051;53.024;8.630;2022-10-29T21:32:02;101636.50;;;14.83
27715;BMP280;16051;53.024;8.630;2022-10-29T21:36:08;101639.97;;;14.78
27715;BMP280;16051;53.024;8.630;2022-10-29T21:40:12;101639.41;;;14.74
27715;BMP280;16051;53.024;8.630;2022-10-29T21:44:14;101624.63;;;14.68
27715;BMP280;16051;53.024;8.630;2022-10-29T21:48:17;101641.13;;;14.71
27715;BMP280;16051;53.024;8.630;2022-10-29T21:52:19;101640.81;;;14.69
27715;BMP280;16051;53.024;8.630;2022-10-29T21:56:23;101635.44;;;14.66
27715;BMP280;16051;53.024;8.630;2022-10-29T22:11:00;101622.59;;;14.54
27715;BMP280;16051;53.024;8.630;2022-10-29T22:15:05;101635.75;;;14.53
27715;BMP280;16051;53.024;8.630;2022-10-29T22:19:07;101644.25;;;14.50
27715;BMP280;16051;53.024;8.630;2022-10-29T22:23:09;101681.44;;;14.52
27715;BMP280;16051;53.024;8.630;2022-10-29T22:27:11;101684.31;;;14.58
27715;BMP280;16051;53.024;8.630;2022-10-29T22:31:17;101675.06;;;14.61
27715;BMP280;16051;53.024;8.630;2022-10-29T22:35:20;101685.41;;;14.60
27715;BMP280;16051;53.024;8.630;2022-10-29T22:39:27;101685.88;;;14.59
27715;BMP280;16051;53.024;8.630;2022-10-29T22:54:55;101679.69;;;14.40
27715;BMP280;16051;53.024;8.630;2022-10-29T22:59:03;101675.56;;;14.36
27715;BMP280;16051;53.024;8.630;2022-10-29T23:03:05;101673.41;;;14.30
27715;BMP280;16051;53.024;8.630;2022-10-29T23:07:07;101659.09;;;14.23
27715;BMP280;16051;53.024;8.630;2022-10-29T23:11:14;101646.75;;;14.24
27715;BMP280;16051;53.024;8.630;2022-10-29T23:15:19;101634.44;;;14.16
27715;BMP280;16051;53.024;8.630;2022-10-29T23:19:22;101629.53;;;14.11
27715;BMP280;16051;53.024;8.630;2022-10-29T23:23:24;101635.41;;;14.13
27715;BMP280;16051;53.024;8.630;2022-10-29T23:27:28;101639.72;;;14.14
27715;BMP280;16051;53.024;8.630;2022-10-29T23:31:30;101632.63;;;14.13
27715;BMP280;16051;53.024;8.630;2022-10-29T23:35:33;101627.84;;;14.13
27715;BMP280;16051;53.024;8.630;2022-10-29T23:39:36;101628.31;;;14.12
27715;BMP280;16051;53.024;8.630;2022-10-29T23:43:52;101627.84;;;14.13
27715;BMP280;16051;53.024;8.630;2022-10-29T23:47:54;101625.06;;;14.13
27715;BMP280;16051;53.024;8.630;2022-10-29T23:51:56;101626.59;;;14.14
27715;BMP280;16051;53.024;8.630;2022-10-29T23:55:59;101623.81;;;14.14
